Date,TemperatureHighF,TemperatureAvgF,TemperatureLowF,DewpointHighF,DewpointAvgF,DewpointLowF,HumidityHigh,HumidityAvg,HumidityLow,PressureMaxIn,PressureMinIn,WindSpeedMaxMPH,WindSpeedAvgMPH,GustSpeedMaxMPH,PrecipitationSumIn
2013-9-1,94,73,66,75,69,65,99,88,50,29.82,29.65,23,2,23,0.04
2013-9-2,95,77,65,74,70,65,99,81,45,29.79,29.69,6,1,7,0.00
2013-9-3,95,77,67,71,66,62,98,74,40,29.86,29.72,10,2,11,0.00
2013-9-4,96,74,60,69,64,59,98,75,42,30.03,29.87,6,1,6,0.06
2013-9-5,97,76,64,69,64,54,98,72,29,30.06,29.95,4,1,6,0.00
2013-9-6,89,72,60,65,62,58,97,74,43,30.14,29.96,8,1,8,0.00
2013-9-7,89,71,57,67,62,57,98,79,47,30.06,29.85,10,1,10,0.00
2013-9-8,95,74,60,70,65,60,98,76,42,29.90,29.80,6,1,9,0.00
2013-9-9,92,76,64,71,67,63,98,77,44,30.07,29.89,5,1,8,0.00
2013-9-10,96,76,63,71,67,62,98,77,43,30.17,30.04,5,1,7,0.00
2013-9-11,93,76,64,72,68,64,98,80,47,30.13,29.98,5,1,7,0.00
2013-9-12,96,76,67,72,69,66,98,81,44,29.98,29.73,8,1,10,0.99
2013-9-13,86,72,59,67,59,51,96,67,34,29.83,29.69,11,2,14,0.00
2013-9-14,85,64,51,59,53,49,96,72,38,30.02,29.83,8,1,9,0.00
2013-9-15,85,65,52,64,58,51,99,80,49,30.10,29.98,4,1,5,0.00
2013-9-16,89,71,59,67,62,58,99,76,42,30.09,29.97,7,2,7,0.20
2013-9-17,75,67,60,59,56,54,85,70,50,30.24,30.09,8,2,12,0.00
2013-9-18,77,64,56,60,55,52,92,75,48,30.22,30.07,4,1,5,0.00
2013-9-19,83,68,60,66,62,58,95,81,53,30.12,29.93,4,1,8,0.11
2013-9-20,93,73,60,68,64,60,98,78,42,29.93,29.81,5,1,8,0.53
2013-9-21,72,68,63,69,66,62,99,93,84,29.85,29.61,11,2,14,1.28
2013-9-22,84,66,53,63,57,52,99,77,40,29.83,29.64,9,1,11,0.00
2013-9-23,82,63,52,60,55,51,98,78,44,29.98,29.83,8,1,8,0.00
2013-9-24,83,66,55,61,58,55,99,80,44,29.97,29.80,5,0,6,0.00
2013-9-25,73,61,55,64,59,54,99,93,67,29.85,29.76,4,0,4,0.14
2013-9-26,84,65,55,62,57,53,99,78,38,29.95,29.77,8,1,10,0.02
2013-9-27,79,63,51,57,54,51,99,77,43,30.10,29.95,7,1,8,0.00
2013-9-28,76,61,51,57,54,50,98,80,48,30.15,30.06,5,1,8,0.00
2013-9-29,76,61,50,59,55,50,99,82,53,30.08,29.90,4,1,5,0.00
2013-9-30,88,64,50,61,56,50,99,77,36,29.98,29.90,6,1,7,0.00